sensor_id;sensor_type;location;lat;lon;timestamp;P1;durP1;ratioP1;P2;durP2;ratioP2
27925;SDS011;15267;47.838;12.128;2023-07-13T00:02:06;4.68;;;2.25;;
27925;SDS011;15267;47.838;12.128;2023-07-13T00:04:32;3.28;;;2.35;;
27925;SDS011;15267;47.838;12.128;2023-07-13T00:06:58;3.15;;;2.03;;
27925;SDS011;15267;47.838;12.128;2023-07-13T00:09:24;4.53;;;2.00;;
27925;SDS011;15267;47.838;12.128;2023-07-13T00:11:51;4.78;;;2.05;;
27925;SDS011;15267;47.838;12.128;2023-07-13T00:14:17;2.83;;;1.90;;
27925;SDS011;15267;47.838;12.128;2023-07-13T00:16:43;4.18;;;1.70;;
27925;SDS011;15267;47.838;12.128;2023-07-13T00:19:13;1.85;;;1.52;;
27925;SDS011;15267;47.838;12.128;2023-07-13T00:21:39;2.25;;;1.65;;
27925;SDS011;15267;47.838;12.128;2023-07-13T00:24:06;2.67;;;1.45;;
27925;SDS011;15267;47.838;12.128;2023-07-13T00:26:32;3.28;;;1.45;;
27925;SDS011;15267;47.838;12.128;2023-07-13T00:28:58;3.38;;;1.50;;
27925;SDS011;15267;47.838;12.128;2023-07-13T00:31:24;2.45;;;1.42;;
27925;SDS011;15267;47.838;12.128;2023-07-13T00:33:50;2.10;;;1.30;;
27925;SDS011;15267;47.838;12.128;2023-07-13T00:36:16;2.05;;;1.40;;
27925;SDS011;15267;47.838;12.128;2023-07-13T00:38:43;3.50;;;1.08;;
27925;SDS011;15267;47.838;12.128;2023-07-13T00:41:09;1.80;;;1.25;;
27925;SDS011;15267;47.838;12.128;2023-07-13T00:43:35;1.85;;;1.00;;
27925;SDS011;15267;47.838;12.128;2023-07-13T00:46:10;0.85;;;0.85;;
27925;SDS011;15267;47.838;12.128;2023-07-13T00:48:36;1.40;;;1.17;;
27925;SDS011;15267;47.838;12.128;2023-07-13T00:51:03;2.60;;;1.20;;
27925;SDS011;15267;47.838;12.128;2023-07-13T00:53:29;2.75;;;1.20;;
27925;SDS011;15267;47.838;12.128;2023-07-13T00:55:56;1.88;;;1.20;;
27925;SDS011;15267;47.838;12.128;2023-07-13T00:58:24;2.33;;;1.20;;
27925;SDS011;15267;47.838;12.128;2023-07-13T01:00:50;2.45;;;1.05;;
27925;SDS011;15267;47.838;12.128;2023-07-13T01:03:17;1.25;;;1.13;;
27925;SDS011;15267;47.838;12.128;2023-07-13T01:05:44;1.58;;;1.10;;
27925;SDS011;15267;47.838;12.128;2023-07-13T01:08:12;2.33;;;1.20;;
27925;SDS011;15267;47.838;12.128;2023-07-13T01:10:38;1.80;;;1.25;;
27925;SDS011;15267;47.838;12.128;2023-07-13T01:13:10;1.40;;;1.30;;
27925;SDS011;15267;47.838;12.128;2023-07-13T01:18:02;2.00;;;1.25;;
27925;SDS011;15267;47.838;12.128;2023-07-13T01:20:29;2.47;;;1.50;;
27925;SDS011;15267;47.838;12.128;2023-07-13T01:22:55;2.88;;;1.27;;
27925;SDS011;15267;47.838;12.128;2023-07-13T01:25:21;5.47;;;1.40;;
27925;SDS011;15267;47.838;12.128;2023-07-13T01:27:47;2.03;;;1.30;;
27925;SDS011;15267;47.838;12.128;2023-07-13T01:30:13;2.83;;;1.30;;
27925;SDS011;15267;47.838;12.128;2023-07-13T01:32:39;2.78;;;1.40;;
27925;SDS011;15267;47.838;12.128;2023-07-13T01:35:06;1.85;;;1.33;;
27925;SDS011;15267;47.838;12.128;2023-07-13T01:37:33;2.83;;;1.40;;
27925;SDS011;15267;47.838;12.128;2023-07-13T01:40:01;2.55;;;1.20;;
27925;SDS011;15267;47.838;12.128;2023-07-13T01:42:27;1.63;;;1.00;;
27925;SDS011;15267;47.838;12.128;2023-07-13T01:44:53;1.98;;;0.95;;
27925;SDS011;15267;47.838;12.128;2023-07-13T01:47:19;2.90;;;1.10;;
27925;SDS011;15267;47.838;12.128;2023-07-13T01:49:45;2.15;;;1.30;;
27925;SDS011;15267;47.838;12.128;2023-07-13T01:52:12;1.45;;;1.13;;
27925;SDS011;15267;47.838;12.128;2023-07-13T01:54:38;3.30;;;1.38;;
27925;SDS011;15267;47.838;12.128;2023-07-13T01:57:04;2.22;;;1.30;;
27925;SDS011;15267;47.838;12.128;2023-07-13T01:59:30;2.78;;;1.35;;
27925;SDS011;15267;47.838;12.128;2023-07-13T02:01:58;2.45;;;1.23;;
27925;SDS011;15267;47.838;12.128;2023-07-13T02:04:24;3.75;;;1.30;;
27925;SDS011;15267;47.838;12.128;2023-07-13T02:06:50;2.40;;;1.23;;
27925;SDS011;15267;47.838;12.128;2023-07-13T02:09:16;1.77;;;1.27;;
27925;SDS011;15267;47.838;12.128;2023-07-13T02:11:42;1.73;;;1.02;;
27925;SDS011;15267;47.838;12.128;2023-07-13T02:14:08;2.53;;;1.50;;
27925;SDS011;15267;47.838;12.128;2023-07-13T02:16:34;2.30;;;1.50;;
27925;SDS011;15267;47.838;12.128;2023-07-13T02:18:59;2.28;;;1.38;;
27925;SDS011;15267;47.838;12.128;2023-07-13T02:21:25;2.55;;;1.40;;
27925;SDS011;15267;47.838;12.128;2023-07-13T02:23:51;2.08;;;1.20;;
27925;SDS011;15267;47.838;12.128;2023-07-13T02:26:17;3.22;;;1.45;;
27925;SDS011;15267;47.838;12.128;2023-07-13T02:28:43;1.95;;;1.30;;
27925;SDS011;15267;47.838;12.128;2023-07-13T02:31:11;2.10;;;1.25;;
27925;SDS011;15267;47.838;12.128;2023-07-13T02:33:37;4.72;;;1.50;;
27925;SDS011;15267;47.838;12.128;2023-07-13T02:36:03;3.83;;;1.58;;
27925;SDS011;15267;47.838;12.128;2023-07-13T02:38:30;3.13;;;1.40;;
27925;SDS011;15267;47.838;12.128;2023-07-13T02:40:58;3.72;;;1.70;;
27925;SDS011;15267;47.838;12.128;2023-07-13T02:43:24;5.20;;;1.90;;
27925;SDS011;15267;47.838;12.128;2023-07-13T02:45:50;3.58;;;2.00;;
27925;SDS011;15267;47.838;12.128;2023-07-13T02:48:16;5.85;;;2.35;;
27925;SDS011;15267;47.838;12.128;2023-07-13T02:50:43;4.15;;;2.17;;
27925;SDS011;15267;47.838;12.128;2023-07-13T02:53:09;4.05;;;2.20;;
27925;SDS011;15267;47.838;12.128;2023-07-13T02:55:35;5.93;;;2.10;;
27925;SDS011;15267;47.838;12.128;2023-07-13T02:58:01;3.72;;;2.10;;
27925;SDS011;15267;47.838;12.128;2023-07-13T03:00:27;3.70;;;2.22;;
27925;SDS011;15267;47.838;12.128;2023-07-13T03:02:53;4.15;;;2.10;;
27925;SDS011;15267;47.838;12.128;2023-07-13T03:05:22;7.85;;;2.08;;
27925;SDS011;15267;47.838;12.128;2023-07-13T03:07:48;4.72;;;1.95;;
27925;SDS011;15267;47.838;12.128;2023-07-13T03:10:14;4.22;;;2.05;;
27925;SDS011;15267;47.838;12.128;2023-07-13T03:12:41;4.25;;;1.90;;
27925;SDS011;15267;47.838;12.128;2023-07-13T03:15:07;3.42;;;2.00;;
27925;SDS011;15267;47.838;12.128;2023-07-13T03:17:33;5.47;;;2.25;;
27925;SDS011;15267;47.838;12.128;2023-07-13T03:19:59;2.95;;;1.83;;
27925;SDS011;15267;47.838;12.128;2023-07-13T03:22:25;4.32;;;2.13;;
27925;SDS011;15267;47.838;12.128;2023-07-13T03:24:51;3.40;;;1.85;;
27925;SDS011;15267;47.838;12.128;2023-07-13T03:27:17;3.35;;;2.00;;
27925;SDS011;15267;47.838;12.128;2023-07-13T03:29:43;5.50;;;2.00;;
27925;SDS011;15267;47.838;12.128;2023-07-13T03:32:09;2.92;;;2.22;;
27925;SDS011;15267;47.838;12.128;2023-07-13T03:34:35;3.67;;;2.30;;
27925;SDS011;15267;47.838;12.128;2023-07-13T03:37:01;4.47;;;2.15;;
27925;SDS011;15267;47.838;12.128;2023-07-13T03:39:27;2.35;;;2.10;;
27925;SDS011;15267;47.838;12.128;2023-07-13T03:41:53;4.72;;;1.80;;
27925;SDS011;15267;47.838;12.128;2023-07-13T03:44:19;5.15;;;2.00;;
27925;SDS011;15267;47.838;12.128;2023-07-13T03:46:45;4.10;;;2.10;;
27925;SDS011;15267;47.838;12.128;2023-07-13T03:49:11;6.03;;;2.13;;
27925;SDS011;15267;47.838;12.128;2023-07-13T03:51:37;4.85;;;2.33;;
27925;SDS011;15267;47.838;12.128;2023-07-13T03:54:03;3.85;;;2.33;;
27925;SDS011;15267;47.838;12.128;2023-07-13T03:56:29;5.28;;;2.00;;
27925;SDS011;15267;47.838;12.128;2023-07-13T03:58:57;4.82;;;2.47;;
27925;SDS011;15267;47.838;12.128;2023-07-13T04:01:23;3.15;;;2.08;;
27925;SDS011;15267;47.838;12.128;2023-07-13T04:03:52;4.72;;;2.13;;
27925;SDS011;15267;47.838;12.128;2023-07-13T04:06:20;3.75;;;2.15;;
27925;SDS011;15267;47.838;12.128;2023-07-13T04:08:47;4.10;;;2.70;;
27925;SDS011;15267;47.838;12.128;2023-07-13T04:11:14;3.42;;;2.47;;
27925;SDS011;15267;47.838;12.128;2023-07-13T04:13:40;4.13;;;2.55;;
27925;SDS011;15267;47.838;12.128;2023-07-13T04:16:06;3.20;;;2.60;;
27925;SDS011;15267;47.838;12.128;2023-07-13T04:18:32;3.30;;;2.40;;
27925;SDS011;15267;47.838;12.128;2023-07-13T04:20:58;5.38;;;2.50;;
27925;SDS011;15267;47.838;12.128;2023-07-13T04:23:24;4.30;;;2.75;;
27925;SDS011;15267;47.838;12.128;2023-07-13T04:25:51;5.40;;;2.70;;
27925;SDS011;15267;47.838;12.128;2023-07-13T04:28:18;5.03;;;2.55;;
27925;SDS011;15267;47.838;12.128;2023-07-13T04:30:44;6.70;;;3.42;;
27925;SDS011;15267;47.838;12.128;2023-07-13T04:33:10;5.72;;;3.15;;
27925;SDS011;15267;47.838;12.128;2023-07-13T04:35:36;6.28;;;3.20;;
27925;SDS011;15267;47.838;12.128;2023-07-13T04:38:02;5.82;;;2.50;;
27925;SDS011;15267;47.838;12.128;2023-07-13T04:40:28;8.40;;;2.60;;
27925;SDS011;15267;47.838;12.128;2023-07-13T04:42:55;6.68;;;2.60;;
27925;SDS011;15267;47.838;12.128;2023-07-13T04:45:21;4.72;;;2.67;;
27925;SDS011;15267;47.838;12.128;2023-07-13T04:47:49;4.43;;;2.70;;
27925;SDS011;15267;47.838;12.128;2023-07-13T04:50:15;7.93;;;2.97;;
27925;SDS011;15267;47.838;12.128;2023-07-13T04:52:44;3.90;;;2.40;;
27925;SDS011;15267;47.838;12.128;2023-07-13T04:55:11;4.18;;;2.50;;
27925;SDS011;15267;47.838;12.128;2023-07-13T04:57:37;4.15;;;2.47;;
27925;SDS011;15267;47.838;12.128;2023-07-13T05:00:03;4.82;;;3.00;;
27925;SDS011;15267;47.838;12.128;2023-07-13T05:02:31;4.00;;;2.40;;
27925;SDS011;15267;47.838;12.128;2023-07-13T05:04:58;3.72;;;2.50;;
27925;SDS011;15267;47.838;12.128;2023-07-13T05:07:24;3.80;;;2.40;;
27925;SDS011;15267;47.838;12.128;2023-07-13T05:09:51;4.35;;;2.60;;
27925;SDS011;15267;47.838;12.128;2023-07-13T05:12:17;3.75;;;2.75;;
27925;SDS011;15267;47.838;12.128;2023-07-13T05:14:43;7.43;;;2.50;;
27925;SDS011;15267;47.838;12.128;2023-07-13T05:17:09;5.05;;;2.35;;
27925;SDS011;15267;47.838;12.128;2023-07-13T05:19:35;4.75;;;2.88;;
27925;SDS011;15267;47.838;12.128;2023-07-13T05:22:01;3.30;;;2.40;;
27925;SDS011;15267;47.838;12.128;2023-07-13T05:24:28;3.80;;;2.20;;
27925;SDS011;15267;47.838;12.128;2023-07-13T05:26:54;4.40;;;2.72;;
27925;SDS011;15267;47.838;12.128;2023-07-13T05:29:20;4.70;;;2.90;;
27925;SDS011;15267;47.838;12.128;2023-07-13T05:31:47;6.35;;;2.67;;
27925;SDS011;15267;47.838;12.128;2023-07-13T05:34:13;4.47;;;2.67;;
27925;SDS011;15267;47.838;12.128;2023-07-13T05:36:39;6.15;;;2.88;;
27925;SDS011;15267;47.838;12.128;2023-07-13T05:39:05;5.00;;;2.78;;
27925;SDS011;15267;47.838;12.128;2023-07-13T05:41:31;4.40;;;2.83;;
27925;SDS011;15267;47.838;12.128;2023-07-13T05:43:57;5.53;;;2.97;;
27925;SDS011;15267;47.838;12.128;2023-07-13T05:46:23;4.78;;;3.17;;
27925;SDS011;15267;47.838;12.128;2023-07-13T05:48:49;3.97;;;2.55;;
27925;SDS011;15267;47.838;12.128;2023-07-13T05:51:15;5.50;;;2.92;;
27925;SDS011;15267;47.838;12.128;2023-07-13T05:53:41;4.28;;;2.83;;
27925;SDS011;15267;47.838;12.128;2023-07-13T05:56:07;5.35;;;2.85;;
27925;SDS011;15267;47.838;12.128;2023-07-13T05:58:32;6.55;;;2.88;;
27925;SDS011;15267;47.838;12.128;2023-07-13T06:01:01;8.50;;;2.90;;
27925;SDS011;15267;47.838;12.128;2023-07-13T06:03:28;4.40;;;2.80;;
27925;SDS011;15267;47.838;12.128;2023-07-13T06:05:54;4.10;;;2.75;;
27925;SDS011;15267;47.838;12.128;2023-07-13T06:08:20;6.55;;;3.03;;
27925;SDS011;15267;47.838;12.128;2023-07-13T06:10:46;4.90;;;3.63;;
27925;SDS011;15267;47.838;12.128;2023-07-13T06:13:12;7.35;;;3.70;;
27925;SDS011;15267;47.838;12.128;2023-07-13T06:15:37;6.20;;;3.13;;
27925;SDS011;15267;47.838;12.128;2023-07-13T06:18:03;6.95;;;2.92;;
27925;SDS011;15267;47.838;12.128;2023-07-13T06:20:30;5.35;;;2.67;;
27925;SDS011;15267;47.838;12.128;2023-07-13T06:22:56;4.28;;;2.60;;
27925;SDS011;15267;47.838;12.128;2023-07-13T06:25:22;5.05;;;2.80;;
27925;SDS011;15267;47.838;12.128;2023-07-13T06:27:47;6.68;;;2.90;;
27925;SDS011;15267;47.838;12.128;2023-07-13T06:30:13;4.55;;;2.60;;
27925;SDS011;15267;47.838;12.128;2023-07-13T06:32:39;6.65;;;3.30;;
27925;SDS011;15267;47.838;12.128;2023-07-13T06:35:05;4.40;;;2.85;;
27925;SDS011;15267;47.838;12.128;2023-07-13T06:37:31;3.15;;;2.70;;
27925;SDS011;15267;47.838;12.128;2023-07-13T06:39:58;5.93;;;2.50;;
27925;SDS011;15267;47.838;12.128;2023-07-13T06:42:24;4.78;;;2.97;;
27925;SDS011;15267;47.838;12.128;2023-07-13T06:44:50;4.47;;;2.88;;
27925;SDS011;15267;47.838;12.128;2023-07-13T06:47:16;5.30;;;2.80;;
27925;SDS011;15267;47.838;12.128;2023-07-13T06:49:42;6.45;;;3.05;;
27925;SDS011;15267;47.838;12.128;2023-07-13T06:52:07;6.47;;;4.40;;
27925;SDS011;15267;47.838;12.128;2023-07-13T06:54:34;4.88;;;3.22;;
27925;SDS011;15267;47.838;12.128;2023-07-13T06:57:00;4.60;;;3.45;;
27925;SDS011;15267;47.838;12.128;2023-07-13T06:59:26;5.10;;;3.33;;
27925;SDS011;15267;47.838;12.128;2023-07-13T07:01:52;5.95;;;3.90;;
27925;SDS011;15267;47.838;12.128;2023-07-13T07:04:18;5.85;;;2.90;;
27925;SDS011;15267;47.838;12.128;2023-07-13T07:06:44;7.85;;;3.28;;
27925;SDS011;15267;47.838;12.128;2023-07-13T07:09:10;4.97;;;3.25;;
27925;SDS011;15267;47.838;12.128;2023-07-13T07:11:36;6.22;;;3.40;;
27925;SDS011;15267;47.838;12.128;2023-07-13T07:14:02;5.93;;;2.97;;
27925;SDS011;15267;47.838;12.128;2023-07-13T07:16:28;5.55;;;2.80;;
27925;SDS011;15267;47.838;12.128;2023-07-13T07:18:54;7.35;;;3.15;;
27925;SDS011;15267;47.838;12.128;2023-07-13T07:21:20;5.13;;;3.13;;
27925;SDS011;15267;47.838;12.128;2023-07-13T07:23:48;5.82;;;3.17;;
27925;SDS011;15267;47.838;12.128;2023-07-13T07:26:14;6.20;;;2.92;;
27925;SDS011;15267;47.838;12.128;2023-07-13T07:28:40;5.20;;;3.10;;
27925;SDS011;15267;47.838;12.128;2023-07-13T07:31:06;6.72;;;3.17;;
27925;SDS011;15267;47.838;12.128;2023-07-13T07:33:33;4.15;;;3.03;;
27925;SDS011;15267;47.838;12.128;2023-07-13T07:35:59;4.75;;;3.00;;
27925;SDS011;15267;47.838;12.128;2023-07-13T07:38:25;5.57;;;3.05;;
27925;SDS011;15267;47.838;12.128;2023-07-13T07:40:52;4.57;;;2.83;;
27925;SDS011;15267;47.838;12.128;2023-07-13T07:43:18;4.45;;;2.60;;
27925;SDS011;15267;47.838;12.128;2023-07-13T07:45:44;3.42;;;2.47;;
27925;SDS011;15267;47.838;12.128;2023-07-13T07:48:11;4.90;;;2.80;;
27925;SDS011;15267;47.838;12.128;2023-07-13T07:50:37;4.97;;;2.47;;
27925;SDS011;15267;47.838;12.128;2023-07-13T07:53:04;5.60;;;2.70;;
27925;SDS011;15267;47.838;12.128;2023-07-13T07:55:32;4.50;;;2.60;;
27925;SDS011;15267;47.838;12.128;2023-07-13T07:57:58;5.43;;;2.38;;
27925;SDS011;15267;47.838;12.128;2023-07-13T08:00:24;3.33;;;2.40;;
27925;SDS011;15267;47.838;12.128;2023-07-13T08:02:50;3.75;;;2.60;;
27925;SDS011;15267;47.838;12.128;2023-07-13T08:05:16;5.60;;;2.47;;
27925;SDS011;15267;47.838;12.128;2023-07-13T08:07:43;3.50;;;2.67;;
27925;SDS011;15267;47.838;12.128;2023-07-13T08:10:09;4.85;;;2.92;;
27925;SDS011;15267;47.838;12.128;2023-07-13T08:12:35;4.30;;;2.65;;
27925;SDS011;15267;47.838;12.128;2023-07-13T08:15:02;4.47;;;2.97;;
27925;SDS011;15267;47.838;12.128;2023-07-13T08:17:28;5.65;;;2.92;;
27925;SDS011;15267;47.838;12.128;2023-07-13T08:19:54;3.25;;;2.50;;
27925;SDS011;15267;47.838;12.128;2023-07-13T08:22:20;4.78;;;2.53;;
27925;SDS011;15267;47.838;12.128;2023-07-13T08:24:46;5.00;;;2.40;;
27925;SDS011;15267;47.838;12.128;2023-07-13T08:27:20;3.22;;;2.20;;
27925;SDS011;15267;47.838;12.128;2023-07-13T08:29:47;3.50;;;2.22;;
27925;SDS011;15267;47.838;12.128;2023-07-13T08:32:13;2.95;;;2.22;;
27925;SDS011;15267;47.838;12.128;2023-07-13T08:34:39;4.47;;;2.25;;
27925;SDS011;15267;47.838;12.128;2023-07-13T08:37:05;4.05;;;2.22;;
27925;SDS011;15267;47.838;12.128;2023-07-13T08:39:32;2.85;;;2.00;;
27925;SDS011;15267;47.838;12.128;2023-07-13T08:41:59;2.88;;;2.10;;
27925;SDS011;15267;47.838;12.128;2023-07-13T08:46:58;3.17;;;2.10;;
27925;SDS011;15267;47.838;12.128;2023-07-13T08:49:24;4.07;;;2.30;;
27925;SDS011;15267;47.838;12.128;2023-07-13T08:51:53;3.50;;;1.95;;
27925;SDS011;15267;47.838;12.128;2023-07-13T08:54:36;3.40;;;2.20;;
27925;SDS011;15267;47.838;12.128;2023-07-13T08:57:24;4.05;;;2.10;;
27925;SDS011;15267;47.838;12.128;2023-07-13T08:59:49;3.78;;;2.00;;
27925;SDS011;15267;47.838;12.128;2023-07-13T09:05:18;2.58;;;1.80;;
27925;SDS011;15267;47.838;12.128;2023-07-13T09:10:21;3.50;;;1.92;;
27925;SDS011;15267;47.838;12.128;2023-07-13T09:15:24;4.07;;;2.00;;
27925;SDS011;15267;47.838;12.128;2023-07-13T09:17:51;8.52;;;2.03;;
27925;SDS011;15267;47.838;12.128;2023-07-13T09:20:25;4.15;;;1.80;;
27925;SDS011;15267;47.838;12.128;2023-07-13T09:22:52;7.53;;;1.90;;
27925;SDS011;15267;47.838;12.128;2023-07-13T09:25:34;5.30;;;1.90;;
27925;SDS011;15267;47.838;12.128;2023-07-13T09:28:23;3.53;;;1.63;;
27925;SDS011;15267;47.838;12.128;2023-07-13T09:30:52;7.75;;;1.65;;
27925;SDS011;15267;47.838;12.128;2023-07-13T09:33:20;2.58;;;1.52;;
27925;SDS011;15267;47.838;12.128;2023-07-13T09:35:46;4.20;;;1.80;;
27925;SDS011;15267;47.838;12.128;2023-07-13T09:38:13;7.43;;;1.70;;
27925;SDS011;15267;47.838;12.128;2023-07-13T09:40:44;4.97;;;1.50;;
27925;SDS011;15267;47.838;12.128;2023-07-13T09:45:39;3.10;;;1.60;;
27925;SDS011;15267;47.838;12.128;2023-07-13T09:48:06;4.90;;;1.65;;
27925;SDS011;15267;47.838;12.128;2023-07-13T09:50:33;6.78;;;2.35;;
27925;SDS011;15267;47.838;12.128;2023-07-13T09:53:00;6.00;;;2.10;;
27925;SDS011;15267;47.838;12.128;2023-07-13T09:55:30;10.43;;;2.00;;
27925;SDS011;15267;47.838;12.128;2023-07-13T09:58:02;5.05;;;1.80;;
27925;SDS011;15267;47.838;12.128;2023-07-13T10:00:30;5.22;;;2.40;;
27925;SDS011;15267;47.838;12.128;2023-07-13T10:05:41;5.47;;;2.20;;
27925;SDS011;15267;47.838;12.128;2023-07-13T10:08:17;7.60;;;2.33;;
27925;SDS011;15267;47.838;12.128;2023-07-13T10:10:44;6.45;;;1.88;;
27925;SDS011;15267;47.838;12.128;2023-07-13T10:13:23;3.97;;;1.35;;
27925;SDS011;15267;47.838;12.128;2023-07-13T10:15:50;5.03;;;1.70;;
27925;SDS011;15267;47.838;12.128;2023-07-13T10:18:16;3.65;;;1.85;;
27925;SDS011;15267;47.838;12.128;2023-07-13T10:20:42;4.22;;;1.70;;
27925;SDS011;15267;47.838;12.128;2023-07-13T10:23:11;3.90;;;1.70;;
27925;SDS011;15267;47.838;12.128;2023-07-13T10:25:39;2.67;;;1.40;;
27925;SDS011;15267;47.838;12.128;2023-07-13T10:30:54;2.50;;;1.48;;
27925;SDS011;15267;47.838;12.128;2023-07-13T10:33:21;2.50;;;1.50;;
27925;SDS011;15267;47.838;12.128;2023-07-13T10:35:47;6.65;;;1.63;;
27925;SDS011;15267;47.838;12.128;2023-07-13T10:38:20;2.63;;;1.65;;
27925;SDS011;15267;47.838;12.128;2023-07-13T10:41:06;3.63;;;1.75;;
27925;SDS011;15267;47.838;12.128;2023-07-13T10:43:33;4.90;;;1.73;;
27925;SDS011;15267;47.838;12.128;2023-07-13T10:46:02;3.88;;;1.60;;
27925;SDS011;15267;47.838;12.128;2023-07-13T10:48:29;3.83;;;1.85;;
27925;SDS011;15267;47.838;12.128;2023-07-13T10:50:57;3.97;;;1.92;;
27925;SDS011;15267;47.838;12.128;2023-07-13T10:53:30;5.93;;;2.30;;
27925;SDS011;15267;47.838;12.128;2023-07-13T10:56:00;3.10;;;1.90;;
27925;SDS011;15267;47.838;12.128;2023-07-13T10:58:38;6.65;;;2.50;;
27925;SDS011;15267;47.838;12.128;2023-07-13T11:01:14;4.35;;;2.00;;
27925;SDS011;15267;47.838;12.128;2023-07-13T11:08:36;7.45;;;2.60;;
27925;SDS011;15267;47.838;12.128;2023-07-13T11:11:03;4.85;;;2.40;;
27925;SDS011;15267;47.838;12.128;2023-07-13T11:13:37;4.45;;;1.83;;
27925;SDS011;15267;47.838;12.128;2023-07-13T11:17:04;3.70;;;2.00;;
27925;SDS011;15267;47.838;12.128;2023-07-13T11:21:28;3.30;;;1.60;;
27925;SDS011;15267;47.838;12.128;2023-07-13T11:24:13;3.47;;;1.90;;
27925;SDS011;15267;47.838;12.128;2023-07-13T11:26:41;4.43;;;1.90;;
27925;SDS011;15267;47.838;12.128;2023-07-13T11:29:52;4.43;;;2.00;;
27925;SDS011;15267;47.838;12.128;2023-07-13T11:31:55;3.65;;;1.67;;
27925;SDS011;15267;47.838;12.128;2023-07-13T11:34:24;4.78;;;2.00;;
27925;SDS011;15267;47.838;12.128;2023-07-13T11:36:51;3.42;;;1.80;;
27925;SDS011;15267;47.838;12.128;2023-07-13T11:39:28;3.05;;;1.80;;
27925;SDS011;15267;47.838;12.128;2023-07-13T11:41:56;7.75;;;1.70;;
27925;SDS011;15267;47.838;12.128;2023-07-13T11:44:23;4.72;;;1.90;;
27925;SDS011;15267;47.838;12.128;2023-07-13T11:46:51;4.65;;;1.73;;
27925;SDS011;15267;47.838;12.128;2023-07-13T11:49:25;7.43;;;2.00;;
27925;SDS011;15267;47.838;12.128;2023-07-13T11:51:54;4.97;;;1.85;;
27925;SDS011;15267;47.838;12.128;2023-07-13T11:54:31;2.58;;;1.85;;
27925;SDS011;15267;47.838;12.128;2023-07-13T11:57:16;6.05;;;2.38;;
27925;SDS011;15267;47.838;12.128;2023-07-13T11:59:44;4.28;;;2.20;;
27925;SDS011;15267;47.838;12.128;2023-07-13T12:02:14;5.70;;;2.00;;
27925;SDS011;15267;47.838;12.128;2023-07-13T12:04:41;5.93;;;1.98;;
27925;SDS011;15267;47.838;12.128;2023-07-13T12:07:14;5.68;;;2.08;;
27925;SDS011;15267;47.838;12.128;2023-07-13T12:09:40;7.15;;;2.53;;
27925;SDS011;15267;47.838;12.128;2023-07-13T12:12:13;5.30;;;2.40;;
27925;SDS011;15267;47.838;12.128;2023-07-13T12:14:40;8.05;;;2.70;;
27925;SDS011;15267;47.838;12.128;2023-07-13T12:17:11;5.03;;;2.05;;
27925;SDS011;15267;47.838;12.128;2023-07-13T12:19:39;3.05;;;1.90;;
27925;SDS011;15267;47.838;12.128;2023-07-13T12:22:08;5.05;;;2.30;;
27925;SDS011;15267;47.838;12.128;2023-07-13T12:24:35;3.70;;;1.80;;
27925;SDS011;15267;47.838;12.128;2023-07-13T12:27:02;5.25;;;1.90;;
27925;SDS011;15267;47.838;12.128;2023-07-13T12:29:29;4.63;;;2.22;;
27925;SDS011;15267;47.838;12.128;2023-07-13T12:31:55;5.65;;;2.00;;
27925;SDS011;15267;47.838;12.128;2023-07-13T12:34:22;3.30;;;2.00;;
27925;SDS011;15267;47.838;12.128;2023-07-13T12:36:50;5.85;;;1.90;;
27925;SDS011;15267;47.838;12.128;2023-07-13T12:39:18;4.80;;;1.83;;
27925;SDS011;15267;47.838;12.128;2023-07-13T12:41:45;5.28;;;2.25;;
27925;SDS011;15267;47.838;12.128;2023-07-13T12:44:11;3.10;;;1.80;;
27925;SDS011;15267;47.838;12.128;2023-07-13T12:46:38;5.00;;;1.80;;
27925;SDS011;15267;47.838;12.128;2023-07-13T12:49:05;4.50;;;2.03;;
27925;SDS011;15267;47.838;12.128;2023-07-13T12:51:32;4.93;;;1.75;;
27925;SDS011;15267;47.838;12.128;2023-07-13T12:54:05;5.40;;;2.10;;
27925;SDS011;15267;47.838;12.128;2023-07-13T12:59:03;3.78;;;2.00;;
27925;SDS011;15267;47.838;12.128;2023-07-13T13:01:32;3.22;;;1.67;;
27925;SDS011;15267;47.838;12.128;2023-07-13T13:04:00;3.72;;;1.70;;
27925;SDS011;15267;47.838;12.128;2023-07-13T13:06:31;5.03;;;2.30;;
27925;SDS011;15267;47.838;12.128;2023-07-13T13:08:58;2.95;;;1.70;;
27925;SDS011;15267;47.838;12.128;2023-07-13T13:11:25;3.20;;;1.75;;
27925;SDS011;15267;47.838;12.128;2023-07-13T13:13:51;4.45;;;2.00;;
27925;SDS011;15267;47.838;12.128;2023-07-13T13:16:31;4.60;;;1.80;;
27925;SDS011;15267;47.838;12.128;2023-07-13T13:18:59;4.80;;;1.60;;
27925;SDS011;15267;47.838;12.128;2023-07-13T13:21:26;3.45;;;1.83;;
27925;SDS011;15267;47.838;12.128;2023-07-13T13:23:52;6.68;;;1.75;;
27925;SDS011;15267;47.838;12.128;2023-07-13T13:26:19;3.65;;;1.65;;
27925;SDS011;15267;47.838;12.128;2023-07-13T13:28:45;6.63;;;1.70;;
27925;SDS011;15267;47.838;12.128;2023-07-13T13:31:15;3.85;;;1.50;;
27925;SDS011;15267;47.838;12.128;2023-07-13T13:33:42;4.30;;;1.70;;
27925;SDS011;15267;47.838;12.128;2023-07-13T13:36:13;4.93;;;1.88;;
27925;SDS011;15267;47.838;12.128;2023-07-13T13:38:40;3.65;;;1.80;;
27925;SDS011;15267;47.838;12.128;2023-07-13T13:41:07;3.47;;;1.65;;
27925;SDS011;15267;47.838;12.128;2023-07-13T13:43:35;6.22;;;1.77;;
27925;SDS011;15267;47.838;12.128;2023-07-13T13:46:01;2.42;;;1.50;;
27925;SDS011;15267;47.838;12.128;2023-07-13T13:48:31;3.38;;;1.60;;
27925;SDS011;15267;47.838;12.128;2023-07-13T13:50:57;3.25;;;1.70;;
27925;SDS011;15267;47.838;12.128;2023-07-13T13:53:24;5.22;;;1.70;;
27925;SDS011;15267;47.838;12.128;2023-07-13T13:55:50;5.80;;;1.85;;
27925;SDS011;15267;47.838;12.128;2023-07-13T13:58:18;3.80;;;1.80;;
27925;SDS011;15267;47.838;12.128;2023-07-13T14:00:44;3.67;;;1.60;;
27925;SDS011;15267;47.838;12.128;2023-07-13T14:03:17;4.13;;;1.45;;
27925;SDS011;15267;47.838;12.128;2023-07-13T14:05:44;3.80;;;1.63;;
27925;SDS011;15267;47.838;12.128;2023-07-13T14:08:12;3.38;;;1.50;;
27925;SDS011;15267;47.838;12.128;2023-07-13T14:10:39;3.20;;;1.40;;
27925;SDS011;15267;47.838;12.128;2023-07-13T14:13:07;3.05;;;1.55;;
27925;SDS011;15267;47.838;12.128;2023-07-13T14:15:37;2.85;;;1.33;;
27925;SDS011;15267;47.838;12.128;2023-07-13T14:18:03;3.20;;;1.50;;
27925;SDS011;15267;47.838;12.128;2023-07-13T14:20:29;4.45;;;1.48;;
27925;SDS011;15267;47.838;12.128;2023-07-13T14:22:55;6.82;;;1.58;;
27925;SDS011;15267;47.838;12.128;2023-07-13T14:25:21;4.72;;;1.50;;
27925;SDS011;15267;47.838;12.128;2023-07-13T14:27:49;7.40;;;1.58;;
27925;SDS011;15267;47.838;12.128;2023-07-13T14:30:16;2.72;;;1.40;;
27925;SDS011;15267;47.838;12.128;2023-07-13T14:32:42;3.03;;;1.38;;
27925;SDS011;15267;47.838;12.128;2023-07-13T14:35:12;3.75;;;1.30;;
27925;SDS011;15267;47.838;12.128;2023-07-13T14:37:39;4.78;;;1.50;;
27925;SDS011;15267;47.838;12.128;2023-07-13T14:40:12;3.80;;;1.48;;
27925;SDS011;15267;47.838;12.128;2023-07-13T14:42:38;3.00;;;1.55;;
27925;SDS011;15267;47.838;12.128;2023-07-13T14:45:04;3.30;;;1.50;;
27925;SDS011;15267;47.838;12.128;2023-07-13T14:47:30;4.72;;;1.33;;
27925;SDS011;15267;47.838;12.128;2023-07-13T14:49:56;3.42;;;1.55;;
27925;SDS011;15267;47.838;12.128;2023-07-13T14:52:23;4.57;;;1.38;;
27925;SDS011;15267;47.838;12.128;2023-07-13T14:54:49;3.22;;;1.30;;
27925;SDS011;15267;47.838;12.128;2023-07-13T14:57:16;4.22;;;1.27;;
27925;SDS011;15267;47.838;12.128;2023-07-13T14:59:43;2.78;;;1.23;;
27925;SDS011;15267;47.838;12.128;2023-07-13T15:02:25;3.67;;;1.30;;
27925;SDS011;15267;47.838;12.128;2023-07-13T15:04:52;2.10;;;1.10;;
27925;SDS011;15267;47.838;12.128;2023-07-13T15:07:19;4.03;;;1.40;;